sensor_id;sensor_type;location;lat;lon;timestamp;P1;durP1;ratioP1;P2;durP2;ratioP2
58366;SDS011;57745;42.524;12.052;2022-12-29T00:16:13;3.58;;;1.90;;
58366;SDS011;57745;42.524;12.052;2022-12-29T00:18:38;5.07;;;2.30;;
58366;SDS011;57745;42.524;12.052;2022-12-29T00:21:04;5.28;;;2.20;;
58366;SDS011;57745;42.524;12.052;2022-12-29T00:23:48;6.22;;;2.35;;
58366;SDS011;57745;42.524;12.052;2022-12-29T00:26:32;3.47;;;2.67;;
58366;SDS011;57745;42.524;12.052;2022-12-29T00:29:15;3.55;;;2.50;;
58366;SDS011;57745;42.524;12.052;2022-12-29T00:32:00;3.92;;;2.42;;
58366;SDS011;57745;42.524;12.052;2022-12-29T00:34:44;4.38;;;2.30;;
58366;SDS011;57745;42.524;12.052;2022-12-29T00:37:27;3.40;;;2.40;;
58366;SDS011;57745;42.524;12.052;2022-12-29T00:40:13;5.22;;;2.45;;
58366;SDS011;57745;42.524;12.052;2022-12-29T00:42:57;4.85;;;2.42;;
58366;SDS011;57745;42.524;12.052;2022-12-29T00:45:41;5.53;;;2.80;;
58366;SDS011;57745;42.524;12.052;2022-12-29T00:48:07;6.00;;;2.90;;
58366;SDS011;57745;42.524;12.052;2022-12-29T00:50:32;6.22;;;2.72;;
58366;SDS011;57745;42.524;12.052;2022-12-29T00:52:57;5.80;;;2.75;;
58366;SDS011;57745;42.524;12.052;2022-12-29T00:55:23;6.18;;;2.50;;
58366;SDS011;57745;42.524;12.052;2022-12-29T00:57:48;6.63;;;2.88;;
58366;SDS011;57745;42.524;12.052;2022-12-29T01:00:14;4.10;;;2.33;;
58366;SDS011;57745;42.524;12.052;2022-12-29T01:02:39;4.47;;;2.70;;
58366;SDS011;57745;42.524;12.052;2022-12-29T01:05:05;5.03;;;3.08;;
58366;SDS011;57745;42.524;12.052;2022-12-29T01:07:30;5.05;;;2.70;;
58366;SDS011;57745;42.524;12.052;2022-12-29T01:09:56;6.10;;;2.65;;
58366;SDS011;57745;42.524;12.052;2022-12-29T01:12:36;3.63;;;2.30;;
58366;SDS011;57745;42.524;12.052;2022-12-29T01:15:05;6.65;;;2.90;;
58366;SDS011;57745;42.524;12.052;2022-12-29T01:17:32;4.93;;;2.55;;
58366;SDS011;57745;42.524;12.052;2022-12-29T01:19:57;5.32;;;2.50;;
58366;SDS011;57745;42.524;12.052;2022-12-29T01:22:23;3.03;;;2.50;;
58366;SDS011;57745;42.524;12.052;2022-12-29T01:24:49;4.28;;;2.70;;
58366;SDS011;57745;42.524;12.052;2022-12-29T01:27:14;4.63;;;2.63;;
58366;SDS011;57745;42.524;12.052;2022-12-29T01:29:40;4.80;;;2.80;;
58366;SDS011;57745;42.524;12.052;2022-12-29T01:32:05;6.25;;;2.90;;
58366;SDS011;57745;42.524;12.052;2022-12-29T01:34:30;4.25;;;2.33;;
58366;SDS011;57745;42.524;12.052;2022-12-29T01:36:56;4.32;;;2.45;;
58366;SDS011;57745;42.524;12.052;2022-12-29T01:39:21;4.78;;;2.67;;
58366;SDS011;57745;42.524;12.052;2022-12-29T01:41:47;4.63;;;2.63;;
58366;SDS011;57745;42.524;12.052;2022-12-29T01:47:08;4.32;;;2.63;;
58366;SDS011;57745;42.524;12.052;2022-12-29T01:49:34;5.35;;;2.78;;
58366;SDS011;57745;42.524;12.052;2022-12-29T01:52:01;4.88;;;2.60;;
58366;SDS011;57745;42.524;12.052;2022-12-29T01:54:32;3.75;;;2.70;;
58366;SDS011;57745;42.524;12.052;2022-12-29T01:57:03;4.05;;;2.50;;
58366;SDS011;57745;42.524;12.052;2022-12-29T01:59:34;4.68;;;2.60;;
58366;SDS011;57745;42.524;12.052;2022-12-29T02:02:07;5.57;;;3.10;;
58366;SDS011;57745;42.524;12.052;2022-12-29T02:04:33;5.28;;;2.72;;
58366;SDS011;57745;42.524;12.052;2022-12-29T02:07:05;3.75;;;2.83;;
58366;SDS011;57745;42.524;12.052;2022-12-29T02:09:35;5.10;;;2.50;;
58366;SDS011;57745;42.524;12.052;2022-12-29T02:12:01;5.70;;;2.80;;
58366;SDS011;57745;42.524;12.052;2022-12-29T02:14:27;4.68;;;3.08;;
58366;SDS011;57745;42.524;12.052;2022-12-29T02:16:57;5.88;;;2.92;;
58366;SDS011;57745;42.524;12.052;2022-12-29T02:27:48;4.72;;;2.85;;
58366;SDS011;57745;42.524;12.052;2022-12-29T02:35:51;4.25;;;2.60;;
58366;SDS011;57745;42.524;12.052;2022-12-29T02:41:00;4.20;;;2.65;;
58366;SDS011;57745;42.524;12.052;2022-12-29T02:46:21;4.32;;;2.65;;
58366;SDS011;57745;42.524;12.052;2022-12-29T02:51:52;4.30;;;2.67;;
58366;SDS011;57745;42.524;12.052;2022-12-29T02:54:23;4.93;;;2.88;;
58366;SDS011;57745;42.524;12.052;2022-12-29T02:59:57;3.95;;;2.88;;
58366;SDS011;57745;42.524;12.052;2022-12-29T03:10:55;3.28;;;2.65;;
58366;SDS011;57745;42.524;12.052;2022-12-29T03:17:08;4.38;;;2.70;;
58366;SDS011;57745;42.524;12.052;2022-12-29T03:22:08;7.30;;;3.45;;
58366;SDS011;57745;42.524;12.052;2022-12-29T03:24:52;3.17;;;2.53;;
58366;SDS011;57745;42.524;12.052;2022-12-29T03:27:23;4.78;;;2.90;;
58366;SDS011;57745;42.524;12.052;2022-12-29T03:29:57;3.95;;;2.95;;
58366;SDS011;57745;42.524;12.052;2022-12-29T03:32:33;6.10;;;3.47;;
58366;SDS011;57745;42.524;12.052;2022-12-29T03:35:03;4.43;;;2.88;;
58366;SDS011;57745;42.524;12.052;2022-12-29T03:37:34;3.38;;;2.45;;
58366;SDS011;57745;42.524;12.052;2022-12-29T03:40:03;3.50;;;2.63;;
58366;SDS011;57745;42.524;12.052;2022-12-29T03:42:30;3.95;;;2.45;;
58366;SDS011;57745;42.524;12.052;2022-12-29T03:44:59;4.50;;;2.72;;
58366;SDS011;57745;42.524;12.052;2022-12-29T03:47:25;5.22;;;2.58;;
58366;SDS011;57745;42.524;12.052;2022-12-29T03:49:51;5.32;;;2.55;;
58366;SDS011;57745;42.524;12.052;2022-12-29T03:52:17;5.30;;;2.42;;
58366;SDS011;57745;42.524;12.052;2022-12-29T03:54:43;4.93;;;2.40;;
58366;SDS011;57745;42.524;12.052;2022-12-29T03:57:10;4.10;;;2.67;;
58366;SDS011;57745;42.524;12.052;2022-12-29T03:59:35;4.88;;;2.28;;
58366;SDS011;57745;42.524;12.052;2022-12-29T04:02:01;5.65;;;2.63;;
58366;SDS011;57745;42.524;12.052;2022-12-29T04:04:27;3.72;;;2.63;;
58366;SDS011;57745;42.524;12.052;2022-12-29T04:06:52;4.10;;;2.35;;
58366;SDS011;57745;42.524;12.052;2022-12-29T04:09:18;4.93;;;2.53;;
58366;SDS011;57745;42.524;12.052;2022-12-29T04:11:44;3.15;;;2.17;;
58366;SDS011;57745;42.524;12.052;2022-12-29T04:14:09;4.82;;;2.40;;
58366;SDS011;57745;42.524;12.052;2022-12-29T04:16:34;6.13;;;2.25;;
58366;SDS011;57745;42.524;12.052;2022-12-29T04:19:04;2.88;;;2.22;;
58366;SDS011;57745;42.524;12.052;2022-12-29T04:21:30;2.30;;;1.80;;
58366;SDS011;57745;42.524;12.052;2022-12-29T04:23:55;4.80;;;2.17;;
58366;SDS011;57745;42.524;12.052;2022-12-29T04:26:21;4.45;;;2.05;;
58366;SDS011;57745;42.524;12.052;2022-12-29T04:28:46;3.10;;;2.00;;
58366;SDS011;57745;42.524;12.052;2022-12-29T04:31:12;4.15;;;2.35;;
58366;SDS011;57745;42.524;12.052;2022-12-29T04:33:37;5.43;;;2.00;;
58366;SDS011;57745;42.524;12.052;2022-12-29T04:36:03;2.53;;;2.03;;
58366;SDS011;57745;42.524;12.052;2022-12-29T04:38:28;3.20;;;1.77;;
58366;SDS011;57745;42.524;12.052;2022-12-29T04:40:54;4.28;;;2.05;;
58366;SDS011;57745;42.524;12.052;2022-12-29T04:43:29;4.22;;;2.20;;
58366;SDS011;57745;42.524;12.052;2022-12-29T04:45:55;2.67;;;1.70;;
58366;SDS011;57745;42.524;12.052;2022-12-29T04:48:21;3.10;;;2.10;;
58366;SDS011;57745;42.524;12.052;2022-12-29T04:50:47;2.88;;;1.65;;
58366;SDS011;57745;42.524;12.052;2022-12-29T04:53:14;3.15;;;1.88;;
58366;SDS011;57745;42.524;12.052;2022-12-29T04:55:41;3.33;;;1.92;;
58366;SDS011;57745;42.524;12.052;2022-12-29T04:58:06;3.63;;;1.80;;
58366;SDS011;57745;42.524;12.052;2022-12-29T05:00:32;1.98;;;1.77;;
58366;SDS011;57745;42.524;12.052;2022-12-29T05:02:57;2.58;;;1.98;;
58366;SDS011;57745;42.524;12.052;2022-12-29T05:05:23;2.72;;;1.90;;
58366;SDS011;57745;42.524;12.052;2022-12-29T05:07:49;2.42;;;1.70;;
58366;SDS011;57745;42.524;12.052;2022-12-29T05:10:14;4.97;;;1.92;;
58366;SDS011;57745;42.524;12.052;2022-12-29T05:12:40;4.32;;;1.98;;
58366;SDS011;57745;42.524;12.052;2022-12-29T05:15:06;3.67;;;1.90;;
58366;SDS011;57745;42.524;12.052;2022-12-29T05:17:32;3.75;;;2.10;;
58366;SDS011;57745;42.524;12.052;2022-12-29T05:19:58;3.03;;;1.73;;
58366;SDS011;57745;42.524;12.052;2022-12-29T05:22:24;2.55;;;1.83;;
58366;SDS011;57745;42.524;12.052;2022-12-29T05:24:50;6.45;;;2.00;;
58366;SDS011;57745;42.524;12.052;2022-12-29T05:27:15;2.90;;;1.98;;
58366;SDS011;57745;42.524;12.052;2022-12-29T05:29:41;2.78;;;1.60;;
58366;SDS011;57745;42.524;12.052;2022-12-29T05:32:06;2.30;;;1.85;;
58366;SDS011;57745;42.524;12.052;2022-12-29T05:34:32;3.78;;;1.92;;
58366;SDS011;57745;42.524;12.052;2022-12-29T05:36:57;6.70;;;2.20;;
58366;SDS011;57745;42.524;12.052;2022-12-29T05:39:23;4.43;;;2.05;;
58366;SDS011;57745;42.524;12.052;2022-12-29T05:41:49;3.38;;;1.80;;
58366;SDS011;57745;42.524;12.052;2022-12-29T05:44:14;3.60;;;1.92;;
58366;SDS011;57745;42.524;12.052;2022-12-29T05:46:40;3.00;;;1.90;;
58366;SDS011;57745;42.524;12.052;2022-12-29T05:49:07;5.15;;;1.98;;
58366;SDS011;57745;42.524;12.052;2022-12-29T05:51:32;2.83;;;1.85;;
58366;SDS011;57745;42.524;12.052;2022-12-29T05:53:58;2.38;;;1.80;;
58366;SDS011;57745;42.524;12.052;2022-12-29T05:56:23;3.65;;;1.90;;
58366;SDS011;57745;42.524;12.052;2022-12-29T05:58:49;3.35;;;1.80;;
58366;SDS011;57745;42.524;12.052;2022-12-29T06:01:14;3.65;;;1.77;;
58366;SDS011;57745;42.524;12.052;2022-12-29T06:03:39;2.60;;;2.00;;
58366;SDS011;57745;42.524;12.052;2022-12-29T06:06:05;5.03;;;1.90;;
58366;SDS011;57745;42.524;12.052;2022-12-29T06:08:31;4.18;;;1.95;;
58366;SDS011;57745;42.524;12.052;2022-12-29T06:10:56;3.33;;;1.70;;
58366;SDS011;57745;42.524;12.052;2022-12-29T06:13:22;2.95;;;1.40;;
58366;SDS011;57745;42.524;12.052;2022-12-29T06:15:48;3.35;;;1.50;;
58366;SDS011;57745;42.524;12.052;2022-12-29T06:18:14;3.20;;;1.48;;
58366;SDS011;57745;42.524;12.052;2022-12-29T06:20:40;4.45;;;1.70;;
58366;SDS011;57745;42.524;12.052;2022-12-29T06:23:05;4.75;;;2.00;;
58366;SDS011;57745;42.524;12.052;2022-12-29T06:25:31;4.47;;;1.58;;
58366;SDS011;57745;42.524;12.052;2022-12-29T06:27:58;4.00;;;1.55;;
58366;SDS011;57745;42.524;12.052;2022-12-29T06:30:24;2.95;;;1.45;;
58366;SDS011;57745;42.524;12.052;2022-12-29T06:32:50;4.55;;;1.63;;
58366;SDS011;57745;42.524;12.052;2022-12-29T06:35:16;2.38;;;1.60;;
58366;SDS011;57745;42.524;12.052;2022-12-29T06:37:41;3.90;;;1.60;;
58366;SDS011;57745;42.524;12.052;2022-12-29T06:40:07;2.08;;;1.40;;
58366;SDS011;57745;42.524;12.052;2022-12-29T06:42:33;4.93;;;1.55;;
58366;SDS011;57745;42.524;12.052;2022-12-29T06:44:58;3.92;;;1.42;;
58366;SDS011;57745;42.524;12.052;2022-12-29T06:47:25;3.22;;;1.70;;
58366;SDS011;57745;42.524;12.052;2022-12-29T06:49:51;2.97;;;1.48;;
58366;SDS011;57745;42.524;12.052;2022-12-29T06:52:16;3.70;;;1.35;;
58366;SDS011;57745;42.524;12.052;2022-12-29T06:54:42;2.78;;;1.50;;
58366;SDS011;57745;42.524;12.052;2022-12-29T06:57:07;2.97;;;1.48;;
58366;SDS011;57745;42.524;12.052;2022-12-29T06:59:33;2.20;;;1.50;;
58366;SDS011;57745;42.524;12.052;2022-12-29T07:01:58;2.47;;;1.55;;
58366;SDS011;57745;42.524;12.052;2022-12-29T07:04:24;2.65;;;1.65;;
58366;SDS011;57745;42.524;12.052;2022-12-29T07:06:49;4.53;;;2.05;;
58366;SDS011;57745;42.524;12.052;2022-12-29T07:09:14;3.55;;;1.70;;
58366;SDS011;57745;42.524;12.052;2022-12-29T07:11:40;3.50;;;1.60;;
58366;SDS011;57745;42.524;12.052;2022-12-29T07:14:05;3.65;;;2.00;;
58366;SDS011;57745;42.524;12.052;2022-12-29T07:16:31;3.67;;;1.90;;
58366;SDS011;57745;42.524;12.052;2022-12-29T07:18:57;3.05;;;1.70;;
58366;SDS011;57745;42.524;12.052;2022-12-29T07:21:24;2.28;;;1.80;;
58366;SDS011;57745;42.524;12.052;2022-12-29T07:23:50;3.20;;;1.90;;
58366;SDS011;57745;42.524;12.052;2022-12-29T07:26:16;2.08;;;1.70;;
58366;SDS011;57745;42.524;12.052;2022-12-29T07:28:43;4.28;;;2.10;;
58366;SDS011;57745;42.524;12.052;2022-12-29T07:31:15;2.75;;;1.80;;
58366;SDS011;57745;42.524;12.052;2022-12-29T07:33:43;4.90;;;2.00;;
58366;SDS011;57745;42.524;12.052;2022-12-29T07:36:11;3.33;;;1.80;;
58366;SDS011;57745;42.524;12.052;2022-12-29T07:38:37;4.85;;;1.80;;
58366;SDS011;57745;42.524;12.052;2022-12-29T07:41:03;5.40;;;2.25;;
58366;SDS011;57745;42.524;12.052;2022-12-29T07:43:29;3.17;;;1.85;;
58366;SDS011;57745;42.524;12.052;2022-12-29T07:45:54;3.88;;;1.80;;
58366;SDS011;57745;42.524;12.052;2022-12-29T07:48:20;3.72;;;1.67;;
58366;SDS011;57745;42.524;12.052;2022-12-29T07:50:46;2.20;;;1.60;;
58366;SDS011;57745;42.524;12.052;2022-12-29T07:53:11;3.85;;;1.85;;
58366;SDS011;57745;42.524;12.052;2022-12-29T07:55:36;3.85;;;1.60;;
58366;SDS011;57745;42.524;12.052;2022-12-29T07:58:03;2.83;;;1.92;;
58366;SDS011;57745;42.524;12.052;2022-12-29T08:00:29;4.00;;;1.67;;
58366;SDS011;57745;42.524;12.052;2022-12-29T08:02:54;4.50;;;2.03;;
58366;SDS011;57745;42.524;12.052;2022-12-29T08:05:20;2.83;;;1.75;;
58366;SDS011;57745;42.524;12.052;2022-12-29T08:07:45;2.90;;;1.50;;
58366;SDS011;57745;42.524;12.052;2022-12-29T08:10:12;4.40;;;1.90;;
58366;SDS011;57745;42.524;12.052;2022-12-29T08:12:38;3.17;;;1.75;;
58366;SDS011;57745;42.524;12.052;2022-12-29T08:15:05;3.28;;;1.65;;
58366;SDS011;57745;42.524;12.052;2022-12-29T08:17:31;4.57;;;2.00;;
58366;SDS011;57745;42.524;12.052;2022-12-29T08:19:56;4.32;;;1.63;;
58366;SDS011;57745;42.524;12.052;2022-12-29T08:22:22;3.85;;;1.70;;
58366;SDS011;57745;42.524;12.052;2022-12-29T08:24:48;2.72;;;1.60;;
58366;SDS011;57745;42.524;12.052;2022-12-29T08:27:13;3.42;;;1.63;;
58366;SDS011;57745;42.524;12.052;2022-12-29T08:29:39;3.35;;;1.75;;
58366;SDS011;57745;42.524;12.052;2022-12-29T08:32:04;4.70;;;1.70;;
58366;SDS011;57745;42.524;12.052;2022-12-29T08:34:30;5.18;;;1.70;;
58366;SDS011;57745;42.524;12.052;2022-12-29T08:36:56;8.60;;;2.65;;
58366;SDS011;57745;42.524;12.052;2022-12-29T08:39:22;5.50;;;2.03;;
58366;SDS011;57745;42.524;12.052;2022-12-29T08:41:48;4.57;;;1.92;;
58366;SDS011;57745;42.524;12.052;2022-12-29T08:44:13;2.30;;;1.30;;
58366;SDS011;57745;42.524;12.052;2022-12-29T08:46:39;4.50;;;1.70;;
58366;SDS011;57745;42.524;12.052;2022-12-29T08:49:04;3.17;;;1.70;;
58366;SDS011;57745;42.524;12.052;2022-12-29T08:51:30;3.40;;;1.80;;
58366;SDS011;57745;42.524;12.052;2022-12-29T08:53:56;4.72;;;1.60;;
58366;SDS011;57745;42.524;12.052;2022-12-29T08:56:21;2.95;;;1.65;;
58366;SDS011;57745;42.524;12.052;2022-12-29T08:58:49;6.97;;;2.05;;
58366;SDS011;57745;42.524;12.052;2022-12-29T09:01:15;3.22;;;1.73;;
58366;SDS011;57745;42.524;12.052;2022-12-29T09:03:40;3.50;;;1.52;;
58366;SDS011;57745;42.524;12.052;2022-12-29T09:06:06;3.45;;;1.60;;
58366;SDS011;57745;42.524;12.052;2022-12-29T09:08:31;3.55;;;1.95;;
58366;SDS011;57745;42.524;12.052;2022-12-29T09:11:14;2.28;;;1.75;;
58366;SDS011;57745;42.524;12.052;2022-12-29T09:13:43;4.20;;;2.13;;
58366;SDS011;57745;42.524;12.052;2022-12-29T09:16:08;3.75;;;1.70;;
58366;SDS011;57745;42.524;12.052;2022-12-29T09:18:34;4.43;;;1.70;;
58366;SDS011;57745;42.524;12.052;2022-12-29T09:21:03;4.57;;;1.92;;
58366;SDS011;57745;42.524;12.052;2022-12-29T09:23:30;8.75;;;2.20;;
58366;SDS011;57745;42.524;12.052;2022-12-29T09:25:56;3.67;;;1.90;;
58366;SDS011;57745;42.524;12.052;2022-12-29T09:28:22;2.40;;;1.63;;
58366;SDS011;57745;42.524;12.052;2022-12-29T09:30:48;3.22;;;1.85;;
58366;SDS011;57745;42.524;12.052;2022-12-29T09:33:14;3.20;;;1.90;;
58366;SDS011;57745;42.524;12.052;2022-12-29T09:35:43;4.47;;;1.90;;
58366;SDS011;57745;42.524;12.052;2022-12-29T09:38:10;6.05;;;2.25;;
58366;SDS011;57745;42.524;12.052;2022-12-29T09:40:35;10.18;;;4.82;;
58366;SDS011;57745;42.524;12.052;2022-12-29T09:48:38;10.13;;;5.97;;
58366;SDS011;57745;42.524;12.052;2022-12-29T09:51:09;9.85;;;5.22;;
58366;SDS011;57745;42.524;12.052;2022-12-29T09:53:39;9.50;;;5.47;;
58366;SDS011;57745;42.524;12.052;2022-12-29T09:56:16;8.55;;;5.15;;
58366;SDS011;57745;42.524;12.052;2022-12-29T10:01:26;8.82;;;4.85;;
58366;SDS011;57745;42.524;12.052;2022-12-29T10:03:57;7.72;;;4.50;;
58366;SDS011;57745;42.524;12.052;2022-12-29T10:20:48;7.03;;;3.70;;
58366;SDS011;57745;42.524;12.052;2022-12-29T10:25:19;6.57;;;3.42;;
58366;SDS011;57745;42.524;12.052;2022-12-29T10:27:49;4.35;;;3.08;;
58366;SDS011;57745;42.524;12.052;2022-12-29T10:30:16;6.53;;;2.90;;
58366;SDS011;57745;42.524;12.052;2022-12-29T10:32:49;5.13;;;2.85;;
58366;SDS011;57745;42.524;12.052;2022-12-29T10:35:21;5.22;;;2.63;;
58366;SDS011;57745;42.524;12.052;2022-12-29T10:40:28;6.68;;;3.00;;
58366;SDS011;57745;42.524;12.052;2022-12-29T10:42:58;7.13;;;2.95;;
58366;SDS011;57745;42.524;12.052;2022-12-29T10:45:27;4.15;;;2.60;;
58366;SDS011;57745;42.524;12.052;2022-12-29T10:48:03;3.88;;;2.33;;
58366;SDS011;57745;42.524;12.052;2022-12-29T10:50:36;4.30;;;2.45;;
58366;SDS011;57745;42.524;12.052;2022-12-29T10:53:07;2.90;;;2.10;;
58366;SDS011;57745;42.524;12.052;2022-12-29T10:55:43;7.82;;;2.97;;
58366;SDS011;57745;42.524;12.052;2022-12-29T10:58:11;4.88;;;2.63;;
58366;SDS011;57745;42.524;12.052;2022-12-29T11:00:39;5.32;;;2.35;;
58366;SDS011;57745;42.524;12.052;2022-12-29T11:05:46;6.30;;;2.65;;
58366;SDS011;57745;42.524;12.052;2022-12-29T11:08:21;3.83;;;2.35;;
58366;SDS011;57745;42.524;12.052;2022-12-29T11:10:58;4.43;;;2.22;;
58366;SDS011;57745;42.524;12.052;2022-12-29T11:13:26;2.90;;;2.05;;
58366;SDS011;57745;42.524;12.052;2022-12-29T11:15:53;3.70;;;2.03;;
58366;SDS011;57745;42.524;12.052;2022-12-29T11:20:46;3.60;;;1.88;;
58366;SDS011;57745;42.524;12.052;2022-12-29T11:23:23;5.13;;;2.55;;
58366;SDS011;57745;42.524;12.052;2022-12-29T11:29:03;5.82;;;3.33;;
58366;SDS011;57745;42.524;12.052;2022-12-29T11:31:45;6.43;;;3.67;;
58366;SDS011;57745;42.524;12.052;2022-12-29T11:34:22;4.72;;;3.20;;
58366;SDS011;57745;42.524;12.052;2022-12-29T11:37:03;5.40;;;3.40;;
58366;SDS011;57745;42.524;12.052;2022-12-29T11:39:36;6.20;;;3.08;;
58366;SDS011;57745;42.524;12.052;2022-12-29T11:42:03;7.47;;;3.00;;
58366;SDS011;57745;42.524;12.052;2022-12-29T11:44:37;5.35;;;2.92;;
58366;SDS011;57745;42.524;12.052;2022-12-29T11:47:09;4.85;;;2.70;;
58366;SDS011;57745;42.524;12.052;2022-12-29T11:49:49;6.53;;;2.90;;
58366;SDS011;57745;42.524;12.052;2022-12-29T11:52:25;5.03;;;2.60;;
58366;SDS011;57745;42.524;12.052;2022-12-29T11:54:53;4.28;;;2.30;;
58366;SDS011;57745;42.524;12.052;2022-12-29T11:57:21;5.63;;;2.65;;
58366;SDS011;57745;42.524;12.052;2022-12-29T11:59:52;3.92;;;2.30;;
58366;SDS011;57745;42.524;12.052;2022-12-29T12:04:46;3.92;;;2.35;;
58366;SDS011;57745;42.524;12.052;2022-12-29T12:29:22;4.18;;;2.17;;
58366;SDS011;57745;42.524;12.052;2022-12-29T12:34:25;3.92;;;1.88;;
58366;SDS011;57745;42.524;12.052;2022-12-29T12:36:54;4.07;;;1.85;;
58366;SDS011;57745;42.524;12.052;2022-12-29T12:48:02;2.30;;;1.40;;
58366;SDS011;57745;42.524;12.052;2022-12-29T12:51:07;4.40;;;1.85;;
58366;SDS011;57745;42.524;12.052;2022-12-29T12:56:37;3.97;;;2.00;;
58366;SDS011;57745;42.524;12.052;2022-12-29T13:01:55;2.88;;;1.98;;
58366;SDS011;57745;42.524;12.052;2022-12-29T13:37:51;4.13;;;1.40;;
58366;SDS011;57745;42.524;12.052;2022-12-29T13:40:24;3.40;;;1.60;;
58366;SDS011;57745;42.524;12.052;2022-12-29T13:42:54;3.42;;;1.50;;
58366;SDS011;57745;42.524;12.052;2022-12-29T13:45:22;2.17;;;1.35;;
58366;SDS011;57745;42.524;12.052;2022-12-29T13:50:28;2.92;;;1.90;;
58366;SDS011;57745;42.524;12.052;2022-12-29T13:56:09;3.85;;;1.80;;
58366;SDS011;57745;42.524;12.052;2022-12-29T13:58:41;5.63;;;2.50;;
58366;SDS011;57745;42.524;12.052;2022-12-29T14:17:44;8.10;;;3.70;;
58366;SDS011;57745;42.524;12.052;2022-12-29T14:20:25;11.80;;;5.85;;
58366;SDS011;57745;42.524;12.052;2022-12-29T14:28:34;15.77;;;6.03;;
58366;SDS011;57745;42.524;12.052;2022-12-29T14:31:03;12.07;;;5.95;;
58366;SDS011;57745;42.524;12.052;2022-12-29T14:33:34;9.75;;;4.70;;
58366;SDS011;57745;42.524;12.052;2022-12-29T14:36:19;9.75;;;5.03;;
58366;SDS011;57745;42.524;12.052;2022-12-29T14:42:11;8.13;;;4.47;;
58366;SDS011;57745;42.524;12.052;2022-12-29T14:44:52;8.05;;;4.20;;
58366;SDS011;57745;42.524;12.052;2022-12-29T14:47:27;9.43;;;3.80;;
58366;SDS011;57745;42.524;12.052;2022-12-29T14:52:45;6.82;;;3.55;;
58366;SDS011;57745;42.524;12.052;2022-12-29T14:57:48;5.60;;;3.20;;
58366;SDS011;57745;42.524;12.052;2022-12-29T15:00:23;7.22;;;3.47;;
58366;SDS011;57745;42.524;12.052;2022-12-29T15:02:59;5.82;;;3.38;;
58366;SDS011;57745;42.524;12.052;2022-12-29T15:05:52;5.75;;;3.65;;
58366;SDS011;57745;42.524;12.052;2022-12-29T15:08:21;4.90;;;3.05;;
58366;SDS011;57745;42.524;12.052;2022-12-29T15:10:54;7.15;;;3.92;;
58366;SDS011;57745;42.524;12.052;2022-12-29T15:13:32;7.15;;;3.63;;
58366;SDS011;57745;42.524;12.052;2022-12-29T15:15:59;6.40;;;3.40;;
58366;SDS011;57745;42.524;12.052;2022-12-29T15:18:26;5.85;;;3.95;;
58366;SDS011;57745;42.524;12.052;2022-12-29T15:20:58;7.95;;;4.40;;
58366;SDS011;57745;42.524;12.052;2022-12-29T15:23:29;7.88;;;4.07;;
58366;SDS011;57745;42.524;12.052;2022-12-29T15:26:02;8.05;;;4.72;;
58366;SDS011;57745;42.524;12.052;2022-12-29T15:28:39;6.97;;;3.80;;
58366;SDS011;57745;42.524;12.052;2022-12-29T15:33:50;8.23;;;4.32;;
58366;SDS011;57745;42.524;12.052;2022-12-29T15:38:44;8.75;;;5.13;;
58366;SDS011;57745;42.524;12.052;2022-12-29T15:41:17;7.85;;;4.80;;
58366;SDS011;57745;42.524;12.052;2022-12-29T15:44:08;6.00;;;4.25;;
58366;SDS011;57745;42.524;12.052;2022-12-29T15:46:38;8.73;;;4.15;;
58366;SDS011;57745;42.524;12.052;2022-12-29T15:49:05;5.47;;;3.90;;
58366;SDS011;57745;42.524;12.052;2022-12-29T15:51:37;6.13;;;3.72;;
58366;SDS011;57745;42.524;12.052;2022-12-29T15:54:03;5.45;;;4.13;;
58366;SDS011;57745;42.524;12.052;2022-12-29T15:56:30;5.43;;;3.53;;
58366;SDS011;57745;42.524;12.052;2022-12-29T15:58:57;6.75;;;3.55;;
58366;SDS011;57745;42.524;12.052;2022-12-29T16:01:24;5.15;;;3.70;;
58366;SDS011;57745;42.524;12.052;2022-12-29T16:03:52;5.75;;;3.30;;
58366;SDS011;57745;42.524;12.052;2022-12-29T16:06:37;7.40;;;3.55;;
58366;SDS011;57745;42.524;12.052;2022-12-29T16:09:05;5.45;;;2.80;;
58366;SDS011;57745;42.524;12.052;2022-12-29T16:11:38;5.22;;;3.20;;
58366;SDS011;57745;42.524;12.052;2022-12-29T16:17:03;4.30;;;2.83;;
58366;SDS011;57745;42.524;12.052;2022-12-29T16:22:00;5.45;;;3.03;;
58366;SDS011;57745;42.524;12.052;2022-12-29T16:24:30;4.78;;;2.75;;
58366;SDS011;57745;42.524;12.052;2022-12-29T16:27:07;5.38;;;2.88;;
58366;SDS011;57745;42.524;12.052;2022-12-29T16:29:42;4.35;;;3.00;;
58366;SDS011;57745;42.524;12.052;2022-12-29T16:34:51;4.47;;;2.80;;
58366;SDS011;57745;42.524;12.052;2022-12-29T16:37:32;5.20;;;2.95;;
58366;SDS011;57745;42.524;12.052;2022-12-29T16:50:29;6.53;;;3.25;;
58366;SDS011;57745;42.524;12.052;2022-12-29T16:52:55;7.00;;;4.15;;
58366;SDS011;57745;42.524;12.052;2022-12-29T16:55:21;8.57;;;6.63;;
58366;SDS011;57745;42.524;12.052;2022-12-29T16:57:47;9.57;;;6.75;;
58366;SDS011;57745;42.524;12.052;2022-12-29T17:00:22;8.38;;;6.55;;
58366;SDS011;57745;42.524;12.052;2022-12-29T17:02:52;8.73;;;6.57;;
58366;SDS011;57745;42.524;12.052;2022-12-29T17:05:21;7.45;;;5.93;;
58366;SDS011;57745;42.524;12.052;2022-12-29T17:07:46;7.82;;;5.75;;
58366;SDS011;57745;42.524;12.052;2022-12-29T17:10:12;7.07;;;6.18;;
58366;SDS011;57745;42.524;12.052;2022-12-29T17:12:41;9.48;;;6.10;;
58366;SDS011;57745;42.524;12.052;2022-12-29T17:15:17;7.10;;;5.72;;
58366;SDS011;57745;42.524;12.052;2022-12-29T17:17:49;7.43;;;5.60;;
58366;SDS011;57745;42.524;12.052;2022-12-29T17:20:26;6.30;;;5.60;;
58366;SDS011;57745;42.524;12.052;2022-12-29T17:22:54;5.55;;;4.95;;
58366;SDS011;57745;42.524;12.052;2022-12-29T17:25:20;8.18;;;5.13;;
58366;SDS011;57745;42.524;12.052;2022-12-29T17:28:05;8.23;;;5.00;;
58366;SDS011;57745;42.524;12.052;2022-12-29T17:30:47;7.57;;;5.32;;
58366;SDS011;57745;42.524;12.052;2022-12-29T17:33:14;6.45;;;5.32;;
58366;SDS011;57745;42.524;12.052;2022-12-29T17:35:42;8.48;;;4.78;;
58366;SDS011;57745;42.524;12.052;2022-12-29T17:38:12;8.00;;;4.75;;
58366;SDS011;57745;42.524;12.052;2022-12-29T17:43:07;5.57;;;4.10;;
58366;SDS011;57745;42.524;12.052;2022-12-29T17:59:12;5.85;;;3.88;;
58366;SDS011;57745;42.524;12.052;2022-12-29T18:01:38;5.47;;;4.07;;
58366;SDS011;57745;42.524;12.052;2022-12-29T18:04:04;5.28;;;3.85;;
58366;SDS011;57745;42.524;12.052;2022-12-29T18:06:30;7.97;;;5.10;;
58366;SDS011;57745;42.524;12.052;2022-12-29T18:08:55;8.18;;;4.95;;
58366;SDS011;57745;42.524;12.052;2022-12-29T18:11:22;7.22;;;5.03;;
58366;SDS011;57745;42.524;12.052;2022-12-29T18:13:49;6.70;;;5.07;;
58366;SDS011;57745;42.524;12.052;2022-12-29T18:16:16;8.63;;;5.72;;
58366;SDS011;57745;42.524;12.052;2022-12-29T18:18:42;10.45;;;6.97;;
58366;SDS011;57745;42.524;12.052;2022-12-29T18:21:11;8.68;;;6.05;;
58366;SDS011;57745;42.524;12.052;2022-12-29T18:23:40;7.93;;;5.97;;
58366;SDS011;57745;42.524;12.052;2022-12-29T18:26:13;8.23;;;5.75;;
58366;SDS011;57745;42.524;12.052;2022-12-29T18:28:51;9.82;;;5.65;;
58366;SDS011;57745;42.524;12.052;2022-12-29T18:31:19;8.43;;;5.75;;
58366;SDS011;57745;42.524;12.052;2022-12-29T18:33:44;8.93;;;5.90;;
58366;SDS011;57745;42.524;12.052;2022-12-29T18:36:11;9.15;;;6.25;;
58366;SDS011;57745;42.524;12.052;2022-12-29T18:38:37;9.82;;;5.93;;
58366;SDS011;57745;42.524;12.052;2022-12-29T18:41:02;10.70;;;6.80;;
58366;SDS011;57745;42.524;12.052;2022-12-29T18:43:28;11.98;;;7.55;;
58366;SDS011;57745;42.524;12.052;2022-12-29T18:45:53;10.35;;;6.80;;
58366;SDS011;57745;42.524;12.052;2022-12-29T18:48:19;12.65;;;7.00;;